createdAt,value
2024-01-27T00:01:47.434Z,77.30
2024-01-27T00:05:50.444Z,77.10
2024-01-27T00:09:53.510Z,77.00
2024-01-27T00:13:57.280Z,76.90
2024-01-27T00:18:00.490Z,76.80
2024-01-27T00:22:03.589Z,76.60
2024-01-27T00:26:06.876Z,76.50
2024-01-27T00:30:11.532Z,76.30
2024-01-27T00:34:14.632Z,76.20
2024-01-27T00:38:20.299Z,76.20
2024-01-27T00:42:25.978Z,76.30
2024-01-27T00:46:29.240Z,76.40
2024-01-27T00:50:32.457Z,76.50
2024-01-27T00:54:35.745Z,76.60
2024-01-27T00:58:38.746Z,76.60
2024-01-27T01:02:44.916Z,76.60
2024-01-27T01:06:48.145Z,76.70
2024-01-27T01:10:51.191Z,76.70
2024-01-27T01:14:54.818Z,76.70
2024-01-27T01:18:57.934Z,76.90
2024-01-27T01:23:01.206Z,76.90
2024-01-27T01:27:07.275Z,76.80
2024-01-27T01:31:10.767Z,76.70
2024-01-27T01:35:14.134Z,76.70
2024-01-27T01:39:26.469Z,76.70
2024-01-27T01:43:29.616Z,76.70
2024-01-27T01:47:32.811Z,76.70
2024-01-27T01:51:36.064Z,76.70
2024-01-27T01:55:39.184Z,76.70
2024-01-27T01:59:42.892Z,76.70
2024-01-27T02:03:59.085Z,76.80
2024-01-27T02:08:05.473Z,76.90
2024-01-27T02:12:08.707Z,76.90
2024-01-27T02:16:14.900Z,76.90
2024-01-27T02:20:18.038Z,76.80
2024-01-27T02:24:21.398Z,76.90
2024-01-27T02:28:26.397Z,76.90
2024-01-27T02:32:29.368Z,77.00
2024-01-27T02:36:32.449Z,77.00
2024-01-27T02:40:35.565Z,77.00
2024-01-27T02:44:42.210Z,77.00
2024-01-27T02:48:46.376Z,76.90
2024-01-27T02:52:49.448Z,76.80
2024-01-27T02:56:52.540Z,76.70
2024-01-27T03:00:55.552Z,76.70
2024-01-27T03:04:58.733Z,76.60
2024-01-27T03:09:01.941Z,76.60
2024-01-27T03:13:05.198Z,76.60
2024-01-27T03:17:08.711Z,76.60
2024-01-27T03:21:11.822Z,76.60
2024-01-27T03:25:17.115Z,76.60
2024-01-27T03:29:20.280Z,76.50
2024-01-27T03:33:24.353Z,76.50
2024-01-27T03:37:28.186Z,76.40
2024-01-27T03:41:31.378Z,76.40
2024-01-27T03:45:34.550Z,76.20
2024-01-27T03:49:38.937Z,76.30
2024-01-27T03:53:42.269Z,76.40
2024-01-27T03:57:45.445Z,76.40
2024-01-27T04:01:49.155Z,76.40
2024-01-27T04:05:57.853Z,76.40
2024-01-27T04:10:03.156Z,76.50
2024-01-27T04:14:09.276Z,76.50
2024-01-27T04:18:16.685Z,76.40
2024-01-27T04:22:23.585Z,76.30
2024-01-27T04:26:26.836Z,76.50
2024-01-27T04:30:30.672Z,76.40
2024-01-27T04:34:35.023Z,76.30
2024-01-27T04:38:38.233Z,76.30
2024-01-27T04:42:41.534Z,76.40
2024-01-27T04:46:44.714Z,76.60
2024-01-27T04:50:48.356Z,76.80
2024-01-27T04:54:53.753Z,76.90
2024-01-27T04:58:56.793Z,76.80
2024-01-27T05:03:04.724Z,76.80
2024-01-27T05:07:12.995Z,77.00
2024-01-27T05:11:26.339Z,77.10
2024-01-27T05:15:29.673Z,77.20
2024-01-27T05:19:33.099Z,77.20
2024-01-27T05:23:36.169Z,77.30
2024-01-27T05:27:39.974Z,77.30
2024-01-27T05:31:45.036Z,77.20
2024-01-27T05:35:48.149Z,77.10
2024-01-27T05:39:51.671Z,77.30
2024-01-27T05:43:57.803Z,77.40
2024-01-27T05:48:01.875Z,77.20
2024-01-27T05:52:05.389Z,77.20
2024-01-27T05:56:10.688Z,77.40
2024-01-27T06:00:14.835Z,77.50
2024-01-27T06:04:17.914Z,77.60
2024-01-27T06:08:21.393Z,77.60
2024-01-27T06:12:24.598Z,77.60
2024-01-27T06:16:28.071Z,77.60
2024-01-27T06:20:33.493Z,77.60
2024-01-27T06:24:36.695Z,77.70
2024-01-27T06:28:44.434Z,77.80
2024-01-27T06:32:49.013Z,77.70
2024-01-27T06:36:52.290Z,77.70
2024-01-27T06:40:55.573Z,77.70
2024-01-27T06:44:59.094Z,77.70
2024-01-27T06:49:03.320Z,77.70
2024-01-27T06:53:07.878Z,77.60
2024-01-27T06:57:20.257Z,77.70
2024-01-27T07:01:23.360Z,77.90
2024-01-27T07:05:27.156Z,77.90
2024-01-27T07:09:30.270Z,77.90
2024-01-27T07:13:33.757Z,77.80
2024-01-27T07:17:37.130Z,77.70
2024-01-27T07:21:40.263Z,77.80
2024-01-27T07:25:43.266Z,77.90
2024-01-27T07:29:47.680Z,77.80
2024-01-27T07:33:50.862Z,77.90
2024-01-27T07:37:54.097Z,78.00
2024-01-27T07:42:02.994Z,78.00
2024-01-27T07:46:06.100Z,78.10
2024-01-27T07:50:10.748Z,78.10
2024-01-27T07:54:14.790Z,78.00
2024-01-27T07:58:17.619Z,78.00
2024-01-27T08:02:20.728Z,78.00
2024-01-27T08:06:30.769Z,78.00
2024-01-27T08:10:33.855Z,77.90
2024-01-27T08:14:37.223Z,77.80
2024-01-27T08:18:43.786Z,77.70
2024-01-27T09:05:29.450Z,78.20
2024-01-27T09:09:33.018Z,78.60
2024-01-27T09:13:36.411Z,78.90
2024-01-27T09:17:39.625Z,78.70
2024-01-27T09:21:45.612Z,78.40
2024-01-27T09:25:48.772Z,78.00
2024-01-27T09:29:51.933Z,77.50
2024-01-27T09:33:55.627Z,77.00
2024-01-27T09:38:00.813Z,76.50
2024-01-27T09:42:08.141Z,75.70
2024-01-27T09:46:12.151Z,75.20
2024-01-27T09:50:18.869Z,74.90
2024-01-27T09:54:22.058Z,74.40
2024-01-27T09:58:29.543Z,73.30
2024-01-27T10:02:34.101Z,72.90
2024-01-27T10:06:37.616Z,72.60
2024-01-27T10:10:40.526Z,72.00
2024-01-27T10:14:49.241Z,71.70
2024-01-27T10:19:05.575Z,71.30
2024-01-27T10:23:13.108Z,70.80
2024-01-27T10:27:16.451Z,70.60
2024-01-27T10:31:20.707Z,69.70
2024-01-27T10:35:23.662Z,69.10
2024-01-27T10:39:26.687Z,68.30
2024-01-27T10:43:32.716Z,67.90
2024-01-27T10:47:37.915Z,67.50
2024-01-27T10:51:45.250Z,67.20
2024-01-27T10:55:49.264Z,66.20
2024-01-27T10:59:54.852Z,66.40
2024-01-27T11:03:58.635Z,66.20
2024-01-27T11:08:02.036Z,65.90
2024-01-27T11:12:06.307Z,66.00
2024-01-27T11:16:18.677Z,65.50
2024-01-27T11:20:21.613Z,64.70
2024-01-27T11:24:25.559Z,64.60
2024-01-27T11:28:28.705Z,64.10
2024-01-27T11:32:32.545Z,63.20
2024-01-27T11:36:36.394Z,63.50
2024-01-27T11:40:49.055Z,63.00
2024-01-27T11:44:52.184Z,62.80
2024-01-27T11:48:57.084Z,62.90
2024-01-27T11:53:00.175Z,62.00
2024-01-27T11:57:03.049Z,61.90
2024-01-27T12:01:06.179Z,61.40
2024-01-27T12:05:13.496Z,60.40
2024-01-27T12:09:18.083Z,60.50
2024-01-27T12:13:20.927Z,60.60
2024-01-27T12:17:24.317Z,60.20
2024-01-27T12:21:27.401Z,59.40
2024-01-27T12:25:30.643Z,59.50
2024-01-27T12:29:35.205Z,59.00
2024-01-27T12:33:38.324Z,58.90
2024-01-27T12:37:41.493Z,58.90
2024-01-27T12:41:44.829Z,58.80
2024-01-27T12:45:48.177Z,58.90
2024-01-27T12:49:51.765Z,58.70
2024-01-27T12:53:54.942Z,58.40
2024-01-27T12:57:58.678Z,58.30
2024-01-27T13:02:01.494Z,58.10
2024-01-27T13:06:04.857Z,58.20
2024-01-27T13:10:08.593Z,57.60
2024-01-27T13:14:15.758Z,56.70
2024-01-27T13:18:18.766Z,56.30
2024-01-27T13:22:25.464Z,56.60
2024-01-27T13:26:30.187Z,56.10
2024-01-27T13:30:33.194Z,55.70
2024-01-27T13:34:36.218Z,55.60
2024-01-27T13:38:39.097Z,55.20
2024-01-27T13:42:42.108Z,54.90
2024-01-27T13:46:45.033Z,55.20
2024-01-27T13:50:47.994Z,55.00
2024-01-27T13:54:50.956Z,55.30
2024-01-27T13:58:56.058Z,55.40
2024-01-27T14:03:02.002Z,55.30
2024-01-27T14:07:07.891Z,55.40
2024-01-27T14:11:11.821Z,55.20
2024-01-27T14:15:16.209Z,55.40
2024-01-27T14:19:19.323Z,55.40
2024-01-27T14:23:22.282Z,55.60
2024-01-27T14:27:28.548Z,55.30
2024-01-27T14:31:31.787Z,55.30
2024-01-27T14:35:35.327Z,55.40
2024-01-27T14:39:38.417Z,55.00
2024-01-27T14:43:41.223Z,54.20
2024-01-27T14:47:45.050Z,54.30
2024-01-27T14:51:48.041Z,54.40
2024-01-27T14:55:51.441Z,54.40
2024-01-27T14:59:54.561Z,54.40
2024-01-27T15:03:58.146Z,54.40
2024-01-27T15:08:05.738Z,54.30
2024-01-27T15:12:14.416Z,54.00
2024-01-27T15:16:18.369Z,54.20
2024-01-27T15:20:21.407Z,54.30
2024-01-27T15:24:24.279Z,54.30
2024-01-27T15:28:27.120Z,54.40
2024-01-27T15:32:30.186Z,54.50
2024-01-27T15:36:33.082Z,54.40
2024-01-27T15:40:36.025Z,54.60
2024-01-27T15:44:39.237Z,54.90
2024-01-27T15:48:42.458Z,55.00
2024-01-27T15:52:45.415Z,55.10
2024-01-27T15:56:48.393Z,55.40
2024-01-27T16:00:51.836Z,55.70
2024-01-27T16:04:54.938Z,55.70
2024-01-27T16:08:57.983Z,56.10
2024-01-27T16:13:01.022Z,56.20
2024-01-27T16:17:04.002Z,56.60
2024-01-27T16:21:06.868Z,56.90
2024-01-27T16:25:10.079Z,57.40
2024-01-27T16:29:13.146Z,57.80
2024-01-27T16:33:16.078Z,58.10
2024-01-27T16:37:20.093Z,58.20
2024-01-27T16:41:23.372Z,58.50
2024-01-27T16:45:26.513Z,58.60
2024-01-27T16:49:30.073Z,58.70
2024-01-27T16:53:35.333Z,58.70
2024-01-27T16:57:38.357Z,58.20
2024-01-27T17:01:41.419Z,57.70
2024-01-27T17:05:53.041Z,56.90
2024-01-27T17:10:02.610Z,57.20
2024-01-27T17:14:21.642Z,57.60
2024-01-27T17:18:24.998Z,58.10
2024-01-27T17:22:28.335Z,58.30
2024-01-27T17:26:34.045Z,58.20
2024-01-27T17:30:39.879Z,58.10
2024-01-27T17:34:44.089Z,57.90
2024-01-27T17:38:47.287Z,57.80
2024-01-27T17:42:50.503Z,58.10
2024-01-27T17:46:53.909Z,58.30
2024-01-27T17:50:57.133Z,58.50
2024-01-27T17:55:00.373Z,58.60
2024-01-27T17:59:03.609Z,58.60
2024-01-27T18:03:07.657Z,58.70
2024-01-27T18:07:10.772Z,58.80
2024-01-27T18:11:13.903Z,59.00
2024-01-27T18:15:16.928Z,59.20
2024-01-27T18:19:22.806Z,59.50
2024-01-27T18:23:26.043Z,59.50
2024-01-27T18:27:29.031Z,59.80
2024-01-27T18:31:32.540Z,60.10
2024-01-27T18:35:37.390Z,60.30
2024-01-27T18:39:41.583Z,60.40
2024-01-27T18:43:45.034Z,60.60
2024-01-27T18:47:48.089Z,60.70
2024-01-27T18:51:51.279Z,60.70
2024-01-27T18:55:54.320Z,60.80
2024-01-27T18:59:57.411Z,60.80
2024-01-27T19:04:00.596Z,61.00
2024-01-27T19:08:04.626Z,61.20
2024-01-27T19:12:08.554Z,61.20
2024-01-27T19:16:11.657Z,61.40
2024-01-27T19:20:14.866Z,61.40
2024-01-27T19:24:17.999Z,61.50
2024-01-27T19:28:21.019Z,61.50
2024-01-27T19:32:24.031Z,61.60
2024-01-27T19:36:27.046Z,61.70
2024-01-27T19:40:30.276Z,61.70
2024-01-27T19:44:33.466Z,61.50
2024-01-27T19:48:36.730Z,61.60
2024-01-27T19:52:39.846Z,61.90
2024-01-27T19:56:42.745Z,62.20
2024-01-27T20:00:45.762Z,62.30
2024-01-27T20:04:49.837Z,62.30
2024-01-27T20:08:54.322Z,62.40
2024-01-27T20:13:01.635Z,62.40
2024-01-27T20:17:04.571Z,62.40
2024-01-27T20:21:07.576Z,62.30
2024-01-27T20:25:10.999Z,62.30
2024-01-27T20:29:13.931Z,62.50
2024-01-27T20:33:17.287Z,62.40
2024-01-27T20:37:20.568Z,62.40
2024-01-27T20:41:23.490Z,62.50
2024-01-27T20:45:31.990Z,62.70
2024-01-27T20:49:35.124Z,62.60
2024-01-27T20:53:38.764Z,62.70
2024-01-27T20:57:45.020Z,62.90
2024-01-27T21:01:48.385Z,63.10
2024-01-27T21:05:51.872Z,63.30
2024-01-27T21:09:54.785Z,62.80
2024-01-27T21:13:58.781Z,62.70
2024-01-27T21:18:02.758Z,62.50
2024-01-27T21:22:05.691Z,62.90
2024-01-27T21:26:08.473Z,62.70
2024-01-27T21:30:12.318Z,62.70
2024-01-27T21:34:15.436Z,63.00
2024-01-27T21:38:18.458Z,63.10
2024-01-27T21:42:27.693Z,63.20
2024-01-27T21:46:30.763Z,63.30
2024-01-27T21:50:34.736Z,63.40
2024-01-27T21:54:43.703Z,63.70
2024-01-27T21:58:46.651Z,64.00
2024-01-27T22:02:50.610Z,63.90
2024-01-27T22:06:54.379Z,64.10
2024-01-27T22:10:57.197Z,64.30
2024-01-27T22:15:00.336Z,64.50
2024-01-27T22:19:03.701Z,64.50
2024-01-27T22:23:08.012Z,64.50
2024-01-27T22:27:12.162Z,64.40
2024-01-27T22:31:16.205Z,64.50
2024-01-27T22:35:20.170Z,64.80
2024-01-27T22:39:23.123Z,65.00
2024-01-27T22:43:28.456Z,65.00
2024-01-27T22:47:32.578Z,65.10
2024-01-27T22:51:36.263Z,65.30
2024-01-27T22:55:43.538Z,65.30
2024-01-27T22:59:48.119Z,65.40
2024-01-27T23:03:51.647Z,65.70
2024-01-27T23:07:54.947Z,66.00
2024-01-27T23:11:58.140Z,66.10
2024-01-27T23:16:02.029Z,66.40
2024-01-27T23:20:06.057Z,66.70
2024-01-27T23:24:10.179Z,66.90
2024-01-27T23:28:14.602Z,66.80
2024-01-27T23:32:17.820Z,66.90
2024-01-27T23:36:20.953Z,67.10
2024-01-27T23:40:25.518Z,67.20
2024-01-27T23:44:30.363Z,67.30
2024-01-27T23:48:33.664Z,67.80
2024-01-27T23:52:39.069Z,67.70
2024-01-27T23:56:43.341Z,68.20
